sensor_id;sensor_type;location;lat;lon;timestamp;pressure;altitude;pressure_sealevel;temperature;humidity
9538;BME280;4807;48.024;11.726;2023-12-28T00:01:09;95218.53;;;0.80;76.56
9538;BME280;4807;48.024;11.726;2023-12-28T00:04:18;95217.09;;;0.57;77.19
9538;BME280;4807;48.024;11.726;2023-12-28T00:07:27;95216.63;;;0.42;78.52
9538;BME280;4807;48.024;11.726;2023-12-28T00:10:35;95211.63;;;0.79;76.28
9538;BME280;4807;48.024;11.726;2023-12-28T00:13:44;95201.97;;;0.70;77.37
9538;BME280;4807;48.024;11.726;2023-12-28T00:16:54;95207.25;;;1.08;74.96
9538;BME280;4807;48.024;11.726;2023-12-28T00:20:03;95203.06;;;0.77;76.16
9538;BME280;4807;48.024;11.726;2023-12-28T00:23:12;95202.34;;;0.65;77.19
9538;BME280;4807;48.024;11.726;2023-12-28T00:26:20;95210.63;;;0.61;78.01
9538;BME280;4807;48.024;11.726;2023-12-28T00:29:40;95214.31;;;0.58;77.46
9538;BME280;4807;48.024;11.726;2023-12-28T00:32:51;95204.69;;;0.59;77.95
9538;BME280;4807;48.024;11.726;2023-12-28T00:35:59;95197.78;;;0.48;77.85
9538;BME280;4807;48.024;11.726;2023-12-28T00:39:08;95201.06;;;0.41;78.41
9538;BME280;4807;48.024;11.726;2023-12-28T00:42:17;95207.72;;;0.54;78.42
9538;BME280;4807;48.024;11.726;2023-12-28T00:45:26;95201.88;;;0.41;78.70
9538;BME280;4807;48.024;11.726;2023-12-28T00:48:36;95195.81;;;0.50;77.86
9538;BME280;4807;48.024;11.726;2023-12-28T00:51:45;95197.53;;;0.61;77.22
9538;BME280;4807;48.024;11.726;2023-12-28T00:54:54;95196.47;;;0.73;75.79
9538;BME280;4807;48.024;11.726;2023-12-28T00:58:03;95195.25;;;0.96;73.61
9538;BME280;4807;48.024;11.726;2023-12-28T01:01:11;95201.44;;;1.14;72.85
9538;BME280;4807;48.024;11.726;2023-12-28T01:04:21;95198.13;;;1.32;71.29
9538;BME280;4807;48.024;11.726;2023-12-28T01:07:30;95193.59;;;1.34;71.38
9538;BME280;4807;48.024;11.726;2023-12-28T01:10:38;95206.56;;;1.35;70.85
9538;BME280;4807;48.024;11.726;2023-12-28T01:13:47;95215.97;;;1.38;70.57
9538;BME280;4807;48.024;11.726;2023-12-28T01:16:55;95217.75;;;1.28;70.97
9538;BME280;4807;48.024;11.726;2023-12-28T01:20:07;95210.97;;;1.25;71.42
9538;BME280;4807;48.024;11.726;2023-12-28T01:23:17;95220.78;;;1.23;71.64
9538;BME280;4807;48.024;11.726;2023-12-28T01:26:25;95225.47;;;1.39;69.54
9538;BME280;4807;48.024;11.726;2023-12-28T01:29:33;95226.31;;;1.10;71.14
9538;BME280;4807;48.024;11.726;2023-12-28T01:32:42;95233.50;;;1.28;70.39
9538;BME280;4807;48.024;11.726;2023-12-28T01:35:52;95235.44;;;1.35;69.76
9538;BME280;4807;48.024;11.726;2023-12-28T01:39:01;95241.88;;;1.02;72.46
9538;BME280;4807;48.024;11.726;2023-12-28T01:42:10;95239.28;;;1.12;72.49
9538;BME280;4807;48.024;11.726;2023-12-28T01:45:18;95252.75;;;0.98;70.58
9538;BME280;4807;48.024;11.726;2023-12-28T01:48:27;95260.31;;;0.82;72.46
9538;BME280;4807;48.024;11.726;2023-12-28T01:51:38;95250.72;;;0.52;74.00
9538;BME280;4807;48.024;11.726;2023-12-28T01:54:49;95251.09;;;0.37;74.69
9538;BME280;4807;48.024;11.726;2023-12-28T01:57:58;95249.84;;;0.42;75.33
9538;BME280;4807;48.024;11.726;2023-12-28T02:01:07;95254.81;;;0.45;75.12
9538;BME280;4807;48.024;11.726;2023-12-28T02:04:15;95251.38;;;0.44;75.41
9538;BME280;4807;48.024;11.726;2023-12-28T02:07:25;95256.50;;;0.46;75.09
9538;BME280;4807;48.024;11.726;2023-12-28T02:10:34;95247.75;;;0.35;76.15
9538;BME280;4807;48.024;11.726;2023-12-28T02:13:43;95256.53;;;0.55;75.62
9538;BME280;4807;48.024;11.726;2023-12-28T02:17:00;95252.63;;;0.40;75.54
9538;BME280;4807;48.024;11.726;2023-12-28T02:20:12;95259.47;;;0.31;75.78
9538;BME280;4807;48.024;11.726;2023-12-28T02:23:22;95264.13;;;0.28;76.17
9538;BME280;4807;48.024;11.726;2023-12-28T02:26:32;95257.69;;;0.42;76.26
9538;BME280;4807;48.024;11.726;2023-12-28T02:29:40;95246.72;;;0.48;75.71
9538;BME280;4807;48.024;11.726;2023-12-28T02:32:59;95252.13;;;0.56;75.73
9538;BME280;4807;48.024;11.726;2023-12-28T02:36:11;95255.28;;;0.59;76.43
9538;BME280;4807;48.024;11.726;2023-12-28T02:39:23;95255.81;;;0.53;75.74
9538;BME280;4807;48.024;11.726;2023-12-28T02:42:35;95251.25;;;0.46;76.25
9538;BME280;4807;48.024;11.726;2023-12-28T02:45:44;95242.44;;;0.47;77.21
9538;BME280;4807;48.024;11.726;2023-12-28T02:48:53;95250.66;;;0.42;77.14
9538;BME280;4807;48.024;11.726;2023-12-28T02:52:05;95252.56;;;0.30;77.45
9538;BME280;4807;48.024;11.726;2023-12-28T02:55:13;95259.78;;;0.17;77.20
9538;BME280;4807;48.024;11.726;2023-12-28T02:58:23;95254.91;;;0.03;78.28
9538;BME280;4807;48.024;11.726;2023-12-28T03:01:31;95253.34;;;-0.09;79.23
9538;BME280;4807;48.024;11.726;2023-12-28T03:04:39;95259.78;;;-0.13;79.64
9538;BME280;4807;48.024;11.726;2023-12-28T03:07:48;95263.34;;;-0.14;80.08
9538;BME280;4807;48.024;11.726;2023-12-28T03:10:58;95262.56;;;-0.05;79.55
9538;BME280;4807;48.024;11.726;2023-12-28T03:14:07;95268.28;;;0.00;79.13
9538;BME280;4807;48.024;11.726;2023-12-28T03:17:16;95260.66;;;-0.03;78.87
9538;BME280;4807;48.024;11.726;2023-12-28T03:20:25;95252.69;;;-0.02;79.25
9538;BME280;4807;48.024;11.726;2023-12-28T03:23:33;95262.41;;;0.17;77.94
9538;BME280;4807;48.024;11.726;2023-12-28T03:26:41;95260.78;;;0.16;77.87
9538;BME280;4807;48.024;11.726;2023-12-28T03:29:51;95264.03;;;0.09;77.61
9538;BME280;4807;48.024;11.726;2023-12-28T03:32:59;95261.81;;;0.04;78.38
9538;BME280;4807;48.024;11.726;2023-12-28T03:36:17;95258.09;;;0.07;77.66
9538;BME280;4807;48.024;11.726;2023-12-28T03:39:26;95258.47;;;0.02;77.99
9538;BME280;4807;48.024;11.726;2023-12-28T03:42:34;95264.66;;;0.22;76.16
9538;BME280;4807;48.024;11.726;2023-12-28T03:45:44;95273.34;;;0.22;75.35
9538;BME280;4807;48.024;11.726;2023-12-28T03:48:52;95270.97;;;0.19;76.75
9538;BME280;4807;48.024;11.726;2023-12-28T03:52:01;95264.38;;;0.25;75.17
9538;BME280;4807;48.024;11.726;2023-12-28T03:55:09;95261.91;;;0.23;74.49
9538;BME280;4807;48.024;11.726;2023-12-28T03:58:18;95257.50;;;0.24;75.51
9538;BME280;4807;48.024;11.726;2023-12-28T04:01:27;95253.41;;;0.31;74.72
9538;BME280;4807;48.024;11.726;2023-12-28T04:04:36;95266.72;;;0.49;74.01
9538;BME280;4807;48.024;11.726;2023-12-28T04:07:44;95272.38;;;0.54;73.09
9538;BME280;4807;48.024;11.726;2023-12-28T04:10:53;95264.97;;;0.28;74.36
9538;BME280;4807;48.024;11.726;2023-12-28T04:14:01;95268.66;;;0.26;74.66
9538;BME280;4807;48.024;11.726;2023-12-28T04:17:11;95266.13;;;0.45;72.91
9538;BME280;4807;48.024;11.726;2023-12-28T04:20:19;95266.50;;;0.71;70.34
9538;BME280;4807;48.024;11.726;2023-12-28T04:23:27;95264.97;;;1.37;65.60
9538;BME280;4807;48.024;11.726;2023-12-28T04:26:35;95263.56;;;1.81;63.55
9538;BME280;4807;48.024;11.726;2023-12-28T04:29:44;95268.25;;;2.44;60.08
9538;BME280;4807;48.024;11.726;2023-12-28T04:32:54;95274.00;;;2.94;57.99
9538;BME280;4807;48.024;11.726;2023-12-28T04:36:05;95276.53;;;3.13;55.93
9538;BME280;4807;48.024;11.726;2023-12-28T04:39:13;95274.38;;;3.26;56.29
9538;BME280;4807;48.024;11.726;2023-12-28T04:42:21;95279.22;;;3.49;54.79
9538;BME280;4807;48.024;11.726;2023-12-28T04:45:30;95270.03;;;3.53;54.56
9538;BME280;4807;48.024;11.726;2023-12-28T04:48:39;95281.09;;;3.56;54.30
9538;BME280;4807;48.024;11.726;2023-12-28T04:51:48;95280.03;;;3.67;53.80
9538;BME280;4807;48.024;11.726;2023-12-28T04:54:57;95287.56;;;3.79;53.46
9538;BME280;4807;48.024;11.726;2023-12-28T04:58:07;95280.78;;;3.95;53.10
9538;BME280;4807;48.024;11.726;2023-12-28T05:01:15;95284.16;;;4.05;52.55
9538;BME280;4807;48.024;11.726;2023-12-28T05:04:25;95279.47;;;4.16;52.22
9538;BME280;4807;48.024;11.726;2023-12-28T05:07:33;95283.91;;;4.16;52.41
9538;BME280;4807;48.024;11.726;2023-12-28T05:10:41;95281.06;;;4.09;52.34
9538;BME280;4807;48.024;11.726;2023-12-28T05:13:50;95287.00;;;4.11;52.31
9538;BME280;4807;48.024;11.726;2023-12-28T05:16:59;95283.41;;;4.12;52.48
9538;BME280;4807;48.024;11.726;2023-12-28T05:20:09;95279.56;;;4.07;52.82
9538;BME280;4807;48.024;11.726;2023-12-28T05:23:18;95278.34;;;4.45;51.34
9538;BME280;4807;48.024;11.726;2023-12-28T05:26:26;95272.00;;;4.64;50.48
9538;BME280;4807;48.024;11.726;2023-12-28T05:29:34;95275.06;;;4.77;50.18
9538;BME280;4807;48.024;11.726;2023-12-28T05:32:42;95270.59;;;5.19;48.85
9538;BME280;4807;48.024;11.726;2023-12-28T05:35:52;95277.03;;;5.09;48.62
9538;BME280;4807;48.024;11.726;2023-12-28T05:39:00;95286.84;;;5.41;48.17
9538;BME280;4807;48.024;11.726;2023-12-28T05:42:09;95276.44;;;5.31;48.59
9538;BME280;4807;48.024;11.726;2023-12-28T05:45:17;95276.91;;;5.26;49.38
9538;BME280;4807;48.024;11.726;2023-12-28T05:48:25;95273.47;;;5.26;48.91
9538;BME280;4807;48.024;11.726;2023-12-28T05:51:39;95269.50;;;5.30;47.96
9538;BME280;4807;48.024;11.726;2023-12-28T05:54:48;95268.47;;;5.15;48.99
9538;BME280;4807;48.024;11.726;2023-12-28T05:57:56;95273.47;;;5.26;47.64
9538;BME280;4807;48.024;11.726;2023-12-28T06:01:05;95275.47;;;5.40;47.40
9538;BME280;4807;48.024;11.726;2023-12-28T06:04:14;95274.44;;;5.25;48.34
9538;BME280;4807;48.024;11.726;2023-12-28T06:07:23;95278.81;;;5.00;48.70
9538;BME280;4807;48.024;11.726;2023-12-28T06:10:32;95281.28;;;5.02;48.62
9538;BME280;4807;48.024;11.726;2023-12-28T06:13:41;95283.81;;;4.77;49.33
9538;BME280;4807;48.024;11.726;2023-12-28T06:16:49;95294.19;;;4.79;49.36
9538;BME280;4807;48.024;11.726;2023-12-28T06:19:57;95296.63;;;4.72;49.72
9538;BME280;4807;48.024;11.726;2023-12-28T06:23:08;95289.97;;;4.86;48.93
9538;BME280;4807;48.024;11.726;2023-12-28T06:26:17;95301.25;;;4.70;49.56
9538;BME280;4807;48.024;11.726;2023-12-28T06:29:28;95291.97;;;4.66;50.00
9538;BME280;4807;48.024;11.726;2023-12-28T06:32:36;95294.97;;;4.71;50.12
9538;BME280;4807;48.024;11.726;2023-12-28T06:35:44;95286.38;;;4.61;50.43
9538;BME280;4807;48.024;11.726;2023-12-28T06:38:54;95278.44;;;4.61;49.87
9538;BME280;4807;48.024;11.726;2023-12-28T06:42:02;95285.13;;;4.81;49.73
9538;BME280;4807;48.024;11.726;2023-12-28T06:45:11;95286.84;;;4.90;48.37
9538;BME280;4807;48.024;11.726;2023-12-28T06:48:20;95284.91;;;5.01;48.81
9538;BME280;4807;48.024;11.726;2023-12-28T06:51:29;95279.28;;;5.04;48.54
9538;BME280;4807;48.024;11.726;2023-12-28T06:54:40;95282.91;;;4.94;48.88
9538;BME280;4807;48.024;11.726;2023-12-28T06:57:48;95286.88;;;4.98;48.09
9538;BME280;4807;48.024;11.726;2023-12-28T07:00:56;95282.28;;;5.01;48.10
9538;BME280;4807;48.024;11.726;2023-12-28T07:04:05;95282.94;;;5.03;47.97
9538;BME280;4807;48.024;11.726;2023-12-28T07:07:13;95282.94;;;5.03;47.83
9538;BME280;4807;48.024;11.726;2023-12-28T07:10:23;95288.88;;;5.05;47.71
9538;BME280;4807;48.024;11.726;2023-12-28T07:13:32;95294.34;;;5.11;47.66
9538;BME280;4807;48.024;11.726;2023-12-28T07:16:40;95290.00;;;4.94;48.49
9538;BME280;4807;48.024;11.726;2023-12-28T07:19:49;95282.22;;;4.92;47.84
9538;BME280;4807;48.024;11.726;2023-12-28T07:22:57;95284.84;;;4.84;48.58
9538;BME280;4807;48.024;11.726;2023-12-28T07:26:07;95274.25;;;4.76;49.26
9538;BME280;4807;48.024;11.726;2023-12-28T07:29:16;95277.91;;;4.83;48.75
9538;BME280;4807;48.024;11.726;2023-12-28T07:32:24;95268.88;;;4.94;49.20
9538;BME280;4807;48.024;11.726;2023-12-28T07:35:33;95274.25;;;4.76;49.02
9538;BME280;4807;48.024;11.726;2023-12-28T07:38:41;95263.72;;;4.84;49.08
9538;BME280;4807;48.024;11.726;2023-12-28T07:41:52;95277.28;;;4.97;48.43
9538;BME280;4807;48.024;11.726;2023-12-28T07:45:03;95273.28;;;5.35;47.83
9538;BME280;4807;48.024;11.726;2023-12-28T07:48:11;95288.09;;;5.79;47.17
9538;BME280;4807;48.024;11.726;2023-12-28T07:51:20;95290.69;;;5.62;48.54
9538;BME280;4807;48.024;11.726;2023-12-28T07:54:28;95287.50;;;5.34;48.96
9538;BME280;4807;48.024;11.726;2023-12-28T07:57:38;95293.56;;;5.19;51.27
9538;BME280;4807;48.024;11.726;2023-12-28T08:00:47;95302.78;;;5.15;52.24
9538;BME280;4807;48.024;11.726;2023-12-28T08:03:56;95305.38;;;5.07;52.86
9538;BME280;4807;48.024;11.726;2023-12-28T08:07:05;95302.25;;;5.11;52.93
9538;BME280;4807;48.024;11.726;2023-12-28T08:10:14;95303.41;;;5.09;52.80
9538;BME280;4807;48.024;11.726;2023-12-28T08:13:24;95313.59;;;5.04;52.96
9538;BME280;4807;48.024;11.726;2023-12-28T08:16:32;95309.81;;;5.06;53.11
9538;BME280;4807;48.024;11.726;2023-12-28T08:19:42;95304.53;;;5.06;53.32
9538;BME280;4807;48.024;11.726;2023-12-28T08:22:50;95306.41;;;5.22;53.18
9538;BME280;4807;48.024;11.726;2023-12-28T08:26:16;95309.47;;;5.35;52.68
9538;BME280;4807;48.024;11.726;2023-12-28T08:29:26;95304.84;;;5.45;53.01
9538;BME280;4807;48.024;11.726;2023-12-28T08:32:34;95326.38;;;5.58;52.81
9538;BME280;4807;48.024;11.726;2023-12-28T08:35:43;95328.44;;;5.89;50.97
9538;BME280;4807;48.024;11.726;2023-12-28T08:38:51;95341.34;;;6.08;50.34
9538;BME280;4807;48.024;11.726;2023-12-28T08:42:00;95347.13;;;6.11;50.19
9538;BME280;4807;48.024;11.726;2023-12-28T08:45:10;95356.22;;;6.25;50.08
9538;BME280;4807;48.024;11.726;2023-12-28T08:48:19;95350.28;;;6.31;50.81
9538;BME280;4807;48.024;11.726;2023-12-28T08:51:27;95342.00;;;6.50;50.15
9538;BME280;4807;48.024;11.726;2023-12-28T08:54:36;95342.66;;;6.69;49.93
9538;BME280;4807;48.024;11.726;2023-12-28T08:57:44;95334.38;;;6.88;49.79
9538;BME280;4807;48.024;11.726;2023-12-28T09:00:54;95333.00;;;7.00;49.70
9538;BME280;4807;48.024;11.726;2023-12-28T09:04:02;95334.91;;;7.22;49.51
9538;BME280;4807;48.024;11.726;2023-12-28T09:07:11;95338.53;;;7.38;48.36
9538;BME280;4807;48.024;11.726;2023-12-28T09:10:20;95339.09;;;7.56;48.66
9538;BME280;4807;48.024;11.726;2023-12-28T09:13:28;95344.63;;;7.77;47.90
9538;BME280;4807;48.024;11.726;2023-12-28T09:16:38;95326.59;;;7.95;47.75
9538;BME280;4807;48.024;11.726;2023-12-28T09:19:47;95333.81;;;8.10;47.07
9538;BME280;4807;48.024;11.726;2023-12-28T09:22:56;95338.66;;;8.29;46.85
9538;BME280;4807;48.024;11.726;2023-12-28T09:26:06;95326.22;;;8.29;46.26
9538;BME280;4807;48.024;11.726;2023-12-28T09:29:15;95325.84;;;8.40;47.26
9538;BME280;4807;48.024;11.726;2023-12-28T09:32:24;95331.84;;;8.57;47.45
9538;BME280;4807;48.024;11.726;2023-12-28T09:35:33;95328.66;;;8.76;47.47
9538;BME280;4807;48.024;11.726;2023-12-28T09:38:42;95327.50;;;8.94;47.74
9538;BME280;4807;48.024;11.726;2023-12-28T09:41:59;95327.16;;;9.11;47.68
9538;BME280;4807;48.024;11.726;2023-12-28T09:45:08;95326.88;;;9.21;46.59
9538;BME280;4807;48.024;11.726;2023-12-28T09:48:21;95323.94;;;9.31;45.05
9538;BME280;4807;48.024;11.726;2023-12-28T09:51:30;95322.28;;;9.44;44.71
9538;BME280;4807;48.024;11.726;2023-12-28T09:54:38;95315.50;;;9.56;44.51
9538;BME280;4807;48.024;11.726;2023-12-28T09:57:47;95306.09;;;9.75;44.21
9538;BME280;4807;48.024;11.726;2023-12-28T10:00:59;95308.41;;;10.00;43.97
9538;BME280;4807;48.024;11.726;2023-12-28T10:04:10;95311.25;;;9.98;43.34
9538;BME280;4807;48.024;11.726;2023-12-28T10:07:19;95295.81;;;10.08;41.80
9538;BME280;4807;48.024;11.726;2023-12-28T10:10:29;95291.44;;;10.37;43.02
9538;BME280;4807;48.024;11.726;2023-12-28T10:13:37;95286.91;;;10.58;43.76
9538;BME280;4807;48.024;11.726;2023-12-28T10:16:45;95286.91;;;10.58;45.01
9538;BME280;4807;48.024;11.726;2023-12-28T10:19:55;95291.34;;;10.79;44.42
9538;BME280;4807;48.024;11.726;2023-12-28T10:23:10;95292.25;;;10.86;43.98
9538;BME280;4807;48.024;11.726;2023-12-28T10:26:19;95296.59;;;10.94;43.70
9538;BME280;4807;48.024;11.726;2023-12-28T10:29:27;95302.84;;;11.07;41.30
9538;BME280;4807;48.024;11.726;2023-12-28T10:32:39;95296.16;;;11.18;42.24
9538;BME280;4807;48.024;11.726;2023-12-28T10:35:51;95287.38;;;11.31;43.51
9538;BME280;4807;48.024;11.726;2023-12-28T10:39:01;95284.34;;;11.34;44.41
9538;BME280;4807;48.024;11.726;2023-12-28T10:42:18;95286.41;;;11.38;43.29
9538;BME280;4807;48.024;11.726;2023-12-28T10:45:32;95281.06;;;11.38;42.72
9538;BME280;4807;48.024;11.726;2023-12-28T10:48:43;95288.06;;;11.39;42.92
9538;BME280;4807;48.024;11.726;2023-12-28T10:51:55;95268.19;;;11.42;42.39
9538;BME280;4807;48.024;11.726;2023-12-28T10:55:24;95267.41;;;11.55;41.98
9538;BME280;4807;48.024;11.726;2023-12-28T10:58:47;95256.38;;;11.64;41.30
9538;BME280;4807;48.024;11.726;2023-12-28T11:01:59;95255.22;;;11.87;41.22
9538;BME280;4807;48.024;11.726;2023-12-28T11:05:15;95252.81;;;12.11;40.56
9538;BME280;4807;48.024;11.726;2023-12-28T11:08:26;95247.53;;;12.31;41.54
9538;BME280;4807;48.024;11.726;2023-12-28T11:11:36;95244.22;;;12.42;41.60
9538;BME280;4807;48.024;11.726;2023-12-28T11:14:45;95250.63;;;12.48;40.70
9538;BME280;4807;48.024;11.726;2023-12-28T11:17:55;95247.53;;;12.44;40.88
9538;BME280;4807;48.024;11.726;2023-12-28T11:21:04;95251.66;;;12.40;40.33
9538;BME280;4807;48.024;11.726;2023-12-28T11:24:16;95239.72;;;12.49;41.04
9538;BME280;4807;48.024;11.726;2023-12-28T11:27:25;95237.25;;;12.54;41.28
9538;BME280;4807;48.024;11.726;2023-12-28T11:30:33;95233.16;;;12.52;40.92
9538;BME280;4807;48.024;11.726;2023-12-28T11:33:45;95230.88;;;12.49;40.88
9538;BME280;4807;48.024;11.726;2023-12-28T11:36:55;95240.34;;;12.45;40.52
9538;BME280;4807;48.024;11.726;2023-12-28T11:40:12;95229.66;;;12.45;41.66
9538;BME280;4807;48.024;11.726;2023-12-28T11:43:22;95225.34;;;12.44;41.96
9538;BME280;4807;48.024;11.726;2023-12-28T11:46:32;95238.69;;;12.37;41.92
9538;BME280;4807;48.024;11.726;2023-12-28T11:49:41;95221.66;;;12.38;41.76
9538;BME280;4807;48.024;11.726;2023-12-28T11:52:53;95229.03;;;12.36;42.42
9538;BME280;4807;48.024;11.726;2023-12-28T11:56:03;95228.41;;;12.34;42.98
9538;BME280;4807;48.024;11.726;2023-12-28T11:59:14;95232.53;;;12.30;42.45
9538;BME280;4807;48.024;11.726;2023-12-28T12:02:22;95230.69;;;12.24;39.90
9538;BME280;4807;48.024;11.726;2023-12-28T12:05:31;95225.75;;;12.21;39.51
9538;BME280;4807;48.024;11.726;2023-12-28T12:08:40;95223.91;;;12.21;41.24
9538;BME280;4807;48.024;11.726;2023-12-28T12:11:52;95226.56;;;12.21;39.51
9538;BME280;4807;48.024;11.726;2023-12-28T12:15:00;95207.44;;;12.24;36.78
9538;BME280;4807;48.024;11.726;2023-12-28T12:18:09;95213.22;;;12.28;37.54
9538;BME280;4807;48.024;11.726;2023-12-28T12:21:18;95221.63;;;12.25;36.61
9538;BME280;4807;48.024;11.726;2023-12-28T12:24:26;95212.19;;;12.29;36.99
9538;BME280;4807;48.024;11.726;2023-12-28T12:27:36;95212.78;;;12.24;36.59
9538;BME280;4807;48.024;11.726;2023-12-28T12:30:51;95206.66;;;12.24;36.99
9538;BME280;4807;48.024;11.726;2023-12-28T12:34:01;95205.41;;;12.27;36.95
9538;BME280;4807;48.024;11.726;2023-12-28T12:37:10;95202.31;;;12.10;37.89
9538;BME280;4807;48.024;11.726;2023-12-28T12:40:19;95204.38;;;12.08;36.42
9538;BME280;4807;48.024;11.726;2023-12-28T12:43:29;95200.66;;;11.96;38.48
9538;BME280;4807;48.024;11.726;2023-12-28T12:46:38;95197.53;;;11.79;37.85
9538;BME280;4807;48.024;11.726;2023-12-28T12:49:46;95196.47;;;11.67;38.40
9538;BME280;4807;48.024;11.726;2023-12-28T12:52:55;95195.41;;;11.61;38.36
9538;BME280;4807;48.024;11.726;2023-12-28T12:56:04;95196.44;;;11.54;38.92
9538;BME280;4807;48.024;11.726;2023-12-28T12:59:14;95193.13;;;11.52;39.31
9538;BME280;4807;48.024;11.726;2023-12-28T13:02:25;95181.22;;;11.47;39.63
9538;BME280;4807;48.024;11.726;2023-12-28T13:05:35;95188.59;;;11.45;38.62
9538;BME280;4807;48.024;11.726;2023-12-28T13:08:44;95189.63;;;11.44;39.38
9538;BME280;4807;48.024;11.726;2023-12-28T13:11:52;95196.75;;;11.31;39.83
9538;BME280;4807;48.024;11.726;2023-12-28T13:15:03;95187.75;;;11.38;40.36
9538;BME280;4807;48.024;11.726;2023-12-28T13:18:13;95179.38;;;11.35;40.54
9538;BME280;4807;48.024;11.726;2023-12-28T13:21:21;95189.78;;;11.30;41.61
9538;BME280;4807;48.024;11.726;2023-12-28T13:24:30;95187.72;;;11.25;40.90
9538;BME280;4807;48.024;11.726;2023-12-28T13:27:38;95179.56;;;11.33;39.73
9538;BME280;4807;48.024;11.726;2023-12-28T13:30:48;95182.81;;;11.29;40.53
9538;BME280;4807;48.024;11.726;2023-12-28T13:33:58;95193.44;;;11.22;40.98
9538;BME280;4807;48.024;11.726;2023-12-28T13:37:07;95197.56;;;11.25;39.85
9538;BME280;4807;48.024;11.726;2023-12-28T13:40:15;95193.63;;;11.21;39.74
9538;BME280;4807;48.024;11.726;2023-12-28T13:43:26;95195.69;;;11.19;40.12
9538;BME280;4807;48.024;11.726;2023-12-28T13:46:36;95201.19;;;11.11;40.07
9538;BME280;4807;48.024;11.726;2023-12-28T13:49:44;95203.25;;;11.15;39.78
9538;BME280;4807;48.024;11.726;2023-12-28T13:52:52;95202.97;;;11.03;40.50
9538;BME280;4807;48.024;11.726;2023-12-28T13:56:01;95199.09;;;11.06;40.26
9538;BME280;4807;48.024;11.726;2023-12-28T13:59:10;95201.78;;;11.13;40.09
9538;BME280;4807;48.024;11.726;2023-12-28T14:02:20;95196.63;;;11.04;40.65
9538;BME280;4807;48.024;11.726;2023-12-28T14:05:29;95190.44;;;10.97;39.27
9538;BME280;4807;48.024;11.726;2023-12-28T14:08:42;95197.75;;;10.82;41.39
9538;BME280;4807;48.024;11.726;2023-12-28T14:11:50;95189.13;;;10.80;42.14
9538;BME280;4807;48.024;11.726;2023-12-28T14:14:59;95200.38;;;10.76;40.85
9538;BME280;4807;48.024;11.726;2023-12-28T14:18:08;95196.88;;;10.75;41.03
9538;BME280;4807;48.024;11.726;2023-12-28T14:21:18;95201.34;;;10.68;40.44
9538;BME280;4807;48.024;11.726;2023-12-28T14:24:27;95199.72;;;10.67;40.96
9538;BME280;4807;48.024;11.726;2023-12-28T14:27:37;95199.88;;;10.59;41.83
9538;BME280;4807;48.024;11.726;2023-12-28T14:30:46;95199.22;;;10.57;41.51
9538;BME280;4807;48.024;11.726;2023-12-28T14:33:57;95192.66;;;10.53;41.48
9538;BME280;4807;48.024;11.726;2023-12-28T14:37:06;95199.16;;;10.44;41.89
9538;BME280;4807;48.024;11.726;2023-12-28T14:40:14;95197.72;;;10.48;40.97
9538;BME280;4807;48.024;11.726;2023-12-28T14:43:24;95192.94;;;10.37;41.73
9538;BME280;4807;48.024;11.726;2023-12-28T14:46:33;95189.56;;;10.21;41.73
9538;BME280;4807;48.024;11.726;2023-12-28T14:49:44;95185.84;;;10.22;42.09
9538;BME280;4807;48.024;11.726;2023-12-28T14:52:52;95185.44;;;10.19;42.01
9538;BME280;4807;48.024;11.726;2023-12-28T14:56:01;95193.00;;;10.22;41.62
9538;BME280;4807;48.024;11.726;2023-12-28T14:59:09;95200.50;;;10.33;41.42
9538;BME280;4807;48.024;11.726;2023-12-28T15:02:17;95191.41;;;10.21;41.11
9538;BME280;4807;48.024;11.726;2023-12-28T15:05:27;95196.38;;;10.09;42.22
9538;BME280;4807;48.024;11.726;2023-12-28T15:08:35;95195.31;;;10.04;41.53
9538;BME280;4807;48.024;11.726;2023-12-28T15:11:44;95203.50;;;9.81;42.26
9538;BME280;4807;48.024;11.726;2023-12-28T15:14:56;95186.63;;;9.74;42.90
9538;BME280;4807;48.024;11.726;2023-12-28T15:18:06;95201.44;;;9.83;42.85
9538;BME280;4807;48.024;11.726;2023-12-28T15:21:17;95200.31;;;9.71;42.58
9538;BME280;4807;48.024;11.726;2023-12-28T15:24:26;95208.03;;;9.66;42.50
9538;BME280;4807;48.024;11.726;2023-12-28T15:27:35;95206.41;;;9.50;43.48
9538;BME280;4807;48.024;11.726;2023-12-28T15:30:44;95205.13;;;9.61;42.60
9538;BME280;4807;48.024;11.726;2023-12-28T15:33:53;95200.59;;;9.40;43.46
9538;BME280;4807;48.024;11.726;2023-12-28T15:37:03;95207.22;;;9.29;43.10
9538;BME280;4807;48.024;11.726;2023-12-28T15:40:11;95204.66;;;9.21;44.52
9538;BME280;4807;48.024;11.726;2023-12-28T15:43:20;95215.00;;;9.31;43.75
9538;BME280;4807;48.024;11.726;2023-12-28T15:46:28;95207.69;;;9.18;44.01
9538;BME280;4807;48.024;11.726;2023-12-28T15:49:36;95207.50;;;9.19;44.34
9538;BME280;4807;48.024;11.726;2023-12-28T15:52:48;95218.31;;;9.18;44.58
9538;BME280;4807;48.024;11.726;2023-12-28T15:55:57;95213.00;;;9.18;43.79
9538;BME280;4807;48.024;11.726;2023-12-28T15:59:22;95221.53;;;9.13;44.03
9538;BME280;4807;48.024;11.726;2023-12-28T16:02:30;95218.97;;;9.05;44.58
9538;BME280;4807;48.024;11.726;2023-12-28T16:05:39;95219.16;;;9.04;44.31
9538;BME280;4807;48.024;11.726;2023-12-28T16:08:52;95209.91;;;9.14;44.58
9538;BME280;4807;48.024;11.726;2023-12-28T16:12:00;95211.28;;;8.96;44.77
9538;BME280;4807;48.024;11.726;2023-12-28T16:15:10;95213.59;;;8.99;44.82
9538;BME280;4807;48.024;11.726;2023-12-28T16:18:19;95208.00;;;8.94;44.77
9538;BME280;4807;48.024;11.726;2023-12-28T16:21:29;95206.25;;;9.01;44.27
9538;BME280;4807;48.024;11.726;2023-12-28T16:24:39;95201.31;;;8.98;44.92
9538;BME280;4807;48.024;11.726;2023-12-28T16:27:47;95205.13;;;9.10;44.77
9538;BME280;4807;48.024;11.726;2023-12-28T16:30:56;95218.50;;;9.02;45.05
9538;BME280;4807;48.024;11.726;2023-12-28T16:34:05;95206.25;;;9.01;45.55
9538;BME280;4807;48.024;11.726;2023-12-28T16:37:17;95208.28;;;8.99;44.74
9538;BME280;4807;48.024;11.726;2023-12-28T16:40:27;95206.25;;;9.01;45.40
9538;BME280;4807;48.024;11.726;2023-12-28T16:43:36;95201.31;;;8.98;45.88
9538;BME280;4807;48.024;11.726;2023-12-28T16:46:47;95213.19;;;9.02;45.80
9538;BME280;4807;48.024;11.726;2023-12-28T16:49:55;95203.88;;;9.06;45.53
9538;BME280;4807;48.024;11.726;2023-12-28T16:53:04;95204.97;;;8.97;46.90
9538;BME280;4807;48.024;11.726;2023-12-28T16:56:15;95203.69;;;8.93;46.99
9538;BME280;4807;48.024;11.726;2023-12-28T16:59:23;95196.75;;;8.92;46.31
9538;BME280;4807;48.024;11.726;2023-12-28T17:02:31;95203.41;;;9.02;46.27
9538;BME280;4807;48.024;11.726;2023-12-28T17:05:40;95203.41;;;9.02;46.91